This is the latest recevied weather packets stored in our database for station/object OK2ILA-13. If no packets are shown the sender has not sent any weather packets the latest 10 day(s).
| Time | Temp. | Humidity | Pressure | Rain* | Wind** | Luminosity | Snow |
|---|---|---|---|---|---|---|---|
| 1777533383 | 5.56° C | 39% | 1029.6 hPa | - | - | - | - |
| 1777532783 | 5° C | 40% | 1029.6 hPa | - | - | - | - |
| 1777532183 | 5.56° C | 39% | 1029.7 hPa | - | - | - | - |
| 1777531583 | 5° C | 42% | 1029.5 hPa | - | - | - | - |
| 1777530984 | 5° C | 42% | 1029.6 hPa | - | - | - | - |
| 1777530384 | 4.44° C | 44% | 1029.4 hPa | - | - | - | - |
| 1777529784 | 4.44° C | 45% | 1029.3 hPa | - | - | - | - |
| 1777529184 | 2.78° C | 49% | 1029.3 hPa | - | - | - | - |
| 1777528584 | 2.22° C | 51% | 1029.3 hPa | - | - | - | - |
| 1777527985 | 1.11° C | 53% | 1029.3 hPa | - | - | - | - |
| 1777527384 | 1.11° C | 52% | 1029.2 hPa | - | - | - | - |
| 1777526785 | 1.11° C | 52% | 1029.2 hPa | - | - | - | - |
| 1777526185 | 0.56° C | 53% | 1029.2 hPa | - | - | - | - |
| 1777525585 | 0° C | 53% | 1029.1 hPa | - | - | - | - |
| 1777524985 | 0° C | 54% | 1029.1 hPa | - | - | - | - |
| 1777524386 | 0° C | 54% | 1028.8 hPa | - | - | - | - |
| 1777523785 | -0.56° C | 54% | 1028.8 hPa | - | - | - | - |
| 1777523186 | -1.11° C | 56% | 1028.8 hPa | - | - | - | - |
| 1777522586 | -1.11° C | 56% | 1028.8 hPa | - | - | - | - |
| 1777521986 | -1.11° C | 56% | 1028.8 hPa | - | - | - | - |
| 1777521387 | -1.67° C | 56% | 1028.7 hPa | - | - | - | - |
| 1777520787 | -1.67° C | 56% | 1028.8 hPa | - | - | - | - |
| 1777520187 | -1.67° C | 56% | 1028.8 hPa | - | - | - | - |
| 1777519588 | -1.67° C | 57% | 1028.8 hPa | - | - | - | - |
| 1777518988 | -1.67° C | 56% | 1028.7 hPa | - | - | - | - |
* Rain since midnight (hover to see other rain measurements)
** Current wind speed in m/s (hover to see current wind gust speed)